Time;durP1;ratioP1;P1;durP2;ratioP2;P2;SDS_P1;SDS_P2;PMS_P1;PMS_P2;Temp;Humidity;BMP_temperature;BMP_pressure;BME280_temperature;BME280_humidity;BME280_pressure;Samples;Min_cycle;Max_cycle;Signal;HPM_P1;HPM_P2
2020/12/30 00:00:38;;;;;;;18.13;6.32;;;0.30;85.40;;;;;;4980577;28;20035;-90
2020/12/30 00:03:04;;;;;;;14.07;5.75;;;0.30;85.40;;;;;;4999576;28;20026;-90
2020/12/30 00:05:29;;;;;;;12.73;5.82;;;0.40;85.50;;;;;;4978603;28;20031;-91
2020/12/30 00:07:55;;;;;;;17.90;6.57;;;0.40;85.50;;;;;;4977960;28;20047;-91
2020/12/30 00:10:23;;;;;;;16.48;5.85;;;0.40;85.40;;;;;;4968468;28;20476;-90
2020/12/30 00:12:48;;;;;;;20.75;7.38;;;0.40;85.40;;;;;;4978619;28;20415;-91
2020/12/30 00:15:17;;;;;;;16.60;5.95;;;0.40;85.30;;;;;;4978749;28;20027;-90
2020/12/30 00:17:43;;;;;;;13.85;5.78;;;0.40;85.20;;;;;;4977301;28;20027;-90
2020/12/30 00:20:13;;;;;;;14.00;6.35;;;0.40;85.20;;;;;;4976923;28;20054;-90
2020/12/30 00:22:39;;;;;;;11.45;5.80;;;0.40;85.30;;;;;;4977480;28;20047;-92
2020/12/30 00:25:06;;;;;;;11.73;5.57;;;0.40;85.30;;;;;;4961399;28;20077;-91
2020/12/30 00:27:32;;;;;;;14.65;5.05;;;0.40;85.10;;;;;;4978924;28;20019;-92
2020/12/30 00:29:59;;;;;;;13.55;5.97;;;0.40;85.00;;;;;;4987779;28;20037;-92
2020/12/30 00:32:24;;;;;;;14.55;5.55;;;0.30;84.70;;;;;;4978628;28;20026;-92
2020/12/30 00:34:50;;;;;;;15.82;5.80;;;0.30;84.80;;;;;;4982438;28;20027;-91
2020/12/30 00:37:16;;;;;;;16.58;5.50;;;0.20;84.60;;;;;;4961914;28;20471;-91
2020/12/30 00:39:41;;;;;;;14.02;5.60;;;0.20;84.90;;;;;;4982085;28;20109;-89
2020/12/30 00:42:07;;;;;;;13.50;4.93;;;0.20;85.00;;;;;;4990089;28;20073;-89
2020/12/30 00:44:33;;;;;;;12.63;4.60;;;0.20;85.00;;;;;;4980128;28;20346;-91
2020/12/30 00:47:00;;;;;;;14.43;5.20;;;0.20;85.00;;;;;;4979654;28;20050;-92
2020/12/30 00:49:27;;;;;;;12.00;4.93;;;0.10;84.80;;;;;;4997734;28;20046;-92
2020/12/30 00:51:57;;;;;;;12.68;5.13;;;0.20;84.70;;;;;;4998703;28;20022;-91
2020/12/30 00:54:24;;;;;;;10.68;4.18;;;0.10;84.60;;;;;;4997137;28;20007;-91
2020/12/30 00:56:51;;;;;;;12.30;4.97;;;0.10;84.50;;;;;;4988949;28;20023;-92
2020/12/30 00:59:17;;;;;;;9.95;4.78;;;0.00;85.10;;;;;;4984528;28;20133;-91
2020/12/30 01:01:45;;;;;;;11.95;4.38;;;0.10;84.60;;;;;;4961823;28;20109;-91
2020/12/30 01:04:13;;;;;;;10.55;4.82;;;0.00;84.60;;;;;;4977745;28;20058;-92
2020/12/30 01:06:39;;;;;;;15.18;4.80;;;0.00;84.60;;;;;;4977531;28;20023;-91
2020/12/30 01:09:06;;;;;;;10.18;4.35;;;0.00;84.70;;;;;;4977611;28;20043;-91
2020/12/30 01:11:32;;;;;;;11.25;4.47;;;-0.10;84.80;;;;;;4977861;28;20062;-91
2020/12/30 01:13:59;;;;;;;15.10;5.13;;;0.00;85.10;;;;;;4979350;28;20486;-91
2020/12/30 01:16:29;;;;;;;11.00;4.30;;;-0.10;85.20;;;;;;4978197;28;20025;-91
2020/12/30 01:18:54;;;;;;;9.98;4.65;;;0.10;85.30;;;;;;4977642;28;20475;-92
2020/12/30 01:21:20;;;;;;;12.20;4.50;;;0.00;85.20;;;;;;4978885;28;20089;-93
2020/12/30 01:23:46;;;;;;;10.15;4.25;;;0.10;85.50;;;;;;4977315;28;20102;-91
2020/12/30 01:26:11;;;;;;;13.65;4.90;;;0.10;85.50;;;;;;4975575;28;20077;-92
2020/12/30 01:28:39;;;;;;;10.82;4.47;;;0.20;85.40;;;;;;4974621;28;20033;-92
2020/12/30 01:31:04;;;;;;;12.02;4.40;;;0.20;85.40;;;;;;4982157;28;20030;-92
2020/12/30 01:33:30;;;;;;;10.85;4.70;;;0.20;85.40;;;;;;4975137;28;20023;-92
2020/12/30 01:35:56;;;;;;;10.63;4.68;;;0.20;85.40;;;;;;4974266;28;20050;-92
2020/12/30 01:38:22;;;;;;;11.27;4.55;;;0.20;85.40;;;;;;4974853;28;20088;-92
2020/12/30 01:41:14;;;;;;;9.63;4.07;;;0.30;85.60;;;;;;4974259;28;20065;-91
2020/12/30 01:43:40;;;;;;;12.68;4.43;;;0.30;85.60;;;;;;4973268;28;20023;-94
2020/12/30 01:46:06;;;;;;;9.95;3.88;;;0.30;85.60;;;;;;4975454;28;20498;-94
2020/12/30 01:48:34;;;;;;;10.40;4.28;;;0.30;85.50;;;;;;4974341;28;20121;-94
2020/12/30 01:51:00;;;;;;;9.55;3.72;;;0.30;85.30;;;;;;4973938;28;20089;-91
2020/12/30 01:53:26;;;;;;;7.93;3.28;;;0.30;85.00;;;;;;4975211;28;20459;-91
2020/12/30 01:55:54;;;;;;;10.52;3.90;;;0.20;84.80;;;;;;4973579;28;20109;-91
2020/12/30 01:58:20;;;;;;;9.70;3.60;;;0.20;84.80;;;;;;4974458;28;20031;-91
2020/12/30 02:00:52;;;;;;;11.43;3.95;;;0.10;84.90;;;;;;4973274;28;20034;-91
2020/12/30 02:03:18;;;;;;;8.88;3.88;;;0.20;85.10;;;;;;4973988;28;20023;-91
2020/12/30 02:05:44;;;;;;;9.63;4.45;;;0.20;84.80;;;;;;4975090;28;20027;-91
2020/12/30 02:08:12;;;;;;;9.80;3.63;;;0.00;84.60;;;;;;4957149;28;20033;-91
2020/12/30 02:10:37;;;;;;;12.38;3.90;;;-0.10;84.40;;;;;;4973798;28;20023;-90
2020/12/30 02:13:03;;;;;;;12.38;4.05;;;-0.10;84.40;;;;;;4976170;28;20022;-91
2020/12/30 02:15:29;;;;;;;8.40;3.53;;;-0.20;84.40;;;;;;4973501;28;20045;-88
2020/12/30 02:17:56;;;;;;;10.65;4.38;;;-0.20;84.80;;;;;;4973015;28;20031;-89
2020/12/30 02:20:22;;;;;;;10.35;3.72;;;-0.20;85.10;;;;;;4994540;28;20039;-89
2020/12/30 02:23:10;;;;;;;9.60;3.97;;;-0.10;85.30;;;;;;4972988;28;20055;-88
2020/12/30 02:25:37;;;;;;;9.85;3.92;;;-0.10;85.30;;;;;;4974115;28;20411;-90
2020/12/30 02:28:03;;;;;;;8.40;3.30;;;-0.10;85.00;;;;;;4974558;28;20065;-91
2020/12/30 02:30:28;;;;;;;8.15;3.25;;;-0.10;85.00;;;;;;4992274;28;20022;-91
2020/12/30 02:32:54;;;;;;;10.68;4.10;;;-0.10;85.00;;;;;;4989149;28;20027;-89
2020/12/30 02:35:24;;;;;;;8.10;3.38;;;-0.10;84.80;;;;;;4989122;28;20031;-88
2020/12/30 02:37:50;;;;;;;8.88;3.45;;;-0.10;84.60;;;;;;4972731;28;20037;-89
2020/12/30 02:40:18;;;;;;;7.03;3.20;;;-0.10;84.50;;;;;;5001309;28;20054;-89
2020/12/30 02:42:44;;;;;;;8.93;3.72;;;-0.20;84.30;;;;;;4972805;28;20037;-89
2020/12/30 02:45:10;;;;;;;7.70;3.40;;;-0.30;84.20;;;;;;4972871;28;20027;-89
2020/12/30 02:47:36;;;;;;;11.38;3.38;;;-0.30;84.30;;;;;;4974286;28;20026;-89
2020/12/30 02:50:04;;;;;;;9.20;3.40;;;-0.30;84.40;;;;;;4988934;28;20061;-89
2020/12/30 02:52:30;;;;;;;8.52;2.85;;;-0.40;84.40;;;;;;4973625;28;20042;-89
2020/12/30 02:54:55;;;;;;;9.52;3.08;;;-0.50;84.40;;;;;;4957615;28;20438;-88
2020/12/30 02:57:21;;;;;;;7.80;3.13;;;-0.50;84.50;;;;;;4972587;28;20406;-89
2020/12/30 02:59:47;;;;;;;9.40;3.35;;;-0.60;84.30;;;;;;4971565;28;20038;-88
2020/12/30 03:02:12;;;;;;;8.15;3.10;;;-0.60;84.30;;;;;;4973287;28;20029;-89
2020/12/30 03:04:39;;;;;;;7.60;3.10;;;-0.70;84.20;;;;;;4972587;28;20029;-89
2020/12/30 03:07:05;;;;;;;6.97;2.78;;;-0.70;84.50;;;;;;4972270;28;20483;-89
2020/12/30 03:09:31;;;;;;;9.32;3.45;;;-0.70;84.60;;;;;;4989032;28;20035;-87
2020/12/30 03:11:56;;;;;;;10.00;3.05;;;-0.70;84.60;;;;;;4980903;28;20022;-88
2020/12/30 03:14:22;;;;;;;6.68;3.00;;;-0.80;84.50;;;;;;4974784;28;20553;-90
2020/12/30 03:16:48;;;;;;;8.20;2.75;;;-0.80;84.40;;;;;;4969460;28;20114;-90
2020/12/30 03:19:14;;;;;;;6.93;2.90;;;-0.80;84.50;;;;;;4996459;28;20039;-89
2020/12/30 03:21:39;;;;;;;8.30;3.30;;;-0.80;84.60;;;;;;4956258;28;20042;-89
2020/12/30 03:24:05;;;;;;;6.55;2.72;;;-0.90;84.50;;;;;;4979905;28;20038;-89
2020/12/30 03:26:33;;;;;;;7.50;3.28;;;-0.90;84.50;;;;;;4956769;28;20038;-89
2020/12/30 03:29:01;;;;;;;6.80;3.28;;;-0.90;84.50;;;;;;4979012;28;20535;-92
2020/12/30 03:31:31;;;;;;;7.43;3.47;;;-0.90;84.60;;;;;;4974257;28;20022;-91
2020/12/30 03:33:58;;;;;;;8.30;3.70;;;-1.00;84.50;;;;;;4992359;28;20019;-90
2020/12/30 03:36:24;;;;;;;10.15;3.88;;;-1.00;84.50;;;;;;4985497;28;20023;-90
2020/12/30 03:38:50;;;;;;;13.10;4.20;;;-1.00;84.50;;;;;;4956330;28;20047;-90
2020/12/30 03:41:17;;;;;;;9.90;4.45;;;-1.00;84.80;;;;;;4995401;28;20031;-90
2020/12/30 03:43:44;;;;;;;9.40;4.18;;;-1.00;84.80;;;;;;4972588;28;20487;-90
2020/12/30 03:46:10;;;;;;;8.65;3.70;;;-1.00;84.80;;;;;;4972743;28;20495;-90
2020/12/30 03:48:35;;;;;;;10.02;3.83;;;-1.00;84.80;;;;;;4956687;28;20059;-90
2020/12/30 03:51:01;;;;;;;10.63;3.65;;;-1.00;84.90;;;;;;4977259;28;20034;-90
2020/12/30 03:53:26;;;;;;;8.95;3.47;;;-1.00;84.90;;;;;;4991092;28;20057;-91
2020/12/30 03:55:53;;;;;;;10.35;3.75;;;-1.00;84.90;;;;;;4971798;28;20611;-90
2020/12/30 03:58:22;;;;;;;11.50;3.85;;;-1.00;85.00;;;;;;4956924;28;20027;-91
2020/12/30 04:00:47;;;;;;;9.13;4.32;;;-1.00;85.00;;;;;;4973019;28;20027;-91
2020/12/30 04:03:13;;;;;;;10.10;4.20;;;-1.00;85.20;;;;;;4978922;28;20178;-92
2020/12/30 04:05:39;;;;;;;10.13;3.67;;;-0.90;85.30;;;;;;4988864;28;20023;-91
2020/12/30 04:08:04;;;;;;;12.40;3.45;;;-0.90;85.20;;;;;;4978026;28;20031;-91
2020/12/30 04:10:30;;;;;;;8.13;3.65;;;-0.90;85.10;;;;;;4960072;28;20126;-91
2020/12/30 04:12:56;;;;;;;8.38;3.58;;;-0.90;85.00;;;;;;4980491;28;20475;-91
2020/12/30 04:15:21;;;;;;;10.07;3.40;;;-0.90;85.00;;;;;;4977739;28;20031;-91
2020/12/30 04:17:47;;;;;;;9.55;3.65;;;-0.90;85.00;;;;;;4945355;28;20082;-91
2020/12/30 04:20:12;;;;;;;7.32;3.30;;;-0.90;85.10;;;;;;4983676;28;20566;-91
2020/12/30 04:22:41;;;;;;;7.55;3.55;;;-0.90;85.00;;;;;;4960249;28;20089;-91
2020/12/30 04:25:07;;;;;;;7.68;2.88;;;-0.90;85.00;;;;;;4975431;28;20038;-90
2020/12/30 04:27:33;;;;;;;8.98;3.47;;;-0.90;85.00;;;;;;4991328;28;20033;-90
2020/12/30 04:29:59;;;;;;;8.18;3.58;;;-0.90;85.10;;;;;;4980496;28;20105;-89
2020/12/30 04:32:24;;;;;;;9.07;3.45;;;-0.90;85.00;;;;;;4959286;28;20428;-89
2020/12/30 04:34:50;;;;;;;9.90;3.55;;;-0.90;84.90;;;;;;4979389;28;20042;-89
2020/12/30 04:37:16;;;;;;;11.60;4.22;;;-1.00;85.00;;;;;;4975176;28;20118;-89
2020/12/30 04:39:41;;;;;;;10.07;3.92;;;-1.00;84.90;;;;;;4960056;28;20136;-90
2020/12/30 04:42:08;;;;;;;7.57;3.38;;;-1.00;84.90;;;;;;4974772;28;20026;-89
2020/12/30 04:44:39;;;;;;;7.90;3.05;;;-1.00;84.90;;;;;;4993597;28;20027;-89
2020/12/30 04:47:06;;;;;;;8.02;3.50;;;-1.00;84.90;;;;;;4974935;28;20380;-89
2020/12/30 04:49:32;;;;;;;10.38;4.25;;;-1.00;84.90;;;;;;4976269;28;20038;-89
2020/12/30 04:51:58;;;;;;;8.27;3.55;;;-1.00;84.90;;;;;;4974729;28;20026;-89
2020/12/30 04:54:24;;;;;;;10.65;3.70;;;-1.00;85.00;;;;;;4976648;28;20490;-89
2020/12/30 04:57:01;;;;;;;8.45;3.63;;;-1.00;85.10;;;;;;4974778;28;20031;-89
2020/12/30 04:59:40;;;;;;;8.30;3.33;;;-1.00;85.00;;;;;;4970339;28;20519;-89
2020/12/30 05:02:10;;;;;;;10.55;3.88;;;-1.00;85.70;;;;;;4974796;28;20031;-89
2020/12/30 05:04:38;;;;;;;14.20;3.90;;;-1.00;84.80;;;;;;4974630;28;20547;-89
2020/12/30 05:07:14;;;;;;;7.80;3.40;;;-1.00;84.90;;;;;;4975098;28;20023;-90
2020/12/30 05:09:42;;;;;;;7.95;3.60;;;-1.10;84.80;;;;;;4959975;28;20027;-89
2020/12/30 05:12:16;;;;;;;11.13;3.38;;;-1.10;84.80;;;;;;4974656;28;20053;-89
2020/12/30 05:14:42;;;;;;;7.95;3.38;;;-1.10;84.90;;;;;;4996479;28;20081;-90
2020/12/30 05:17:08;;;;;;;9.60;4.00;;;-1.10;85.00;;;;;;4975747;28;20034;-90
2020/12/30 05:19:35;;;;;;;7.45;2.97;;;-1.10;84.90;;;;;;4974535;28;20038;-89
2020/12/30 05:22:01;;;;;;;9.82;3.90;;;-1.20;84.90;;;;;;4973718;28;20082;-90
2020/12/30 05:24:31;;;;;;;6.97;3.00;;;-1.10;85.00;;;;;;4944166;28;20038;-90
2020/12/30 05:27:01;;;;;;;8.05;3.53;;;-1.20;85.00;;;;;;4969320;28;20038;-90
2020/12/30 05:29:27;;;;;;;9.18;3.85;;;-1.10;85.10;;;;;;4976742;28;20042;-90
2020/12/30 05:31:54;;;;;;;7.93;3.35;;;-1.10;85.00;;;;;;4986869;28;20027;-90
2020/12/30 05:34:21;;;;;;;8.32;3.60;;;-1.10;85.10;;;;;;4974778;28;20031;-90
2020/12/30 05:36:47;;;;;;;6.63;3.35;;;-1.10;85.30;;;;;;4980944;28;20050;-90
2020/12/30 05:39:21;;;;;;;8.00;3.53;;;-1.10;85.50;;;;;;4995245;28;20078;-90
2020/12/30 05:41:47;;;;;;;10.30;4.07;;;-0.90;86.10;;;;;;4962668;28;20521;-90
2020/12/30 05:44:19;;;;;;;10.35;4.18;;;-0.80;86.90;;;;;;4976067;28;20030;-90
2020/12/30 05:46:47;;;;;;;10.05;4.68;;;-0.70;86.40;;;;;;4960043;28;20026;-91
2020/12/30 05:49:33;;;;;;;12.18;4.70;;;-0.60;86.50;;;;;;4974954;28;20050;-90
2020/12/30 05:52:13;;;;;;;12.82;4.80;;;-0.50;86.50;;;;;;4979108;28;20014;-90
2020/12/30 05:54:49;;;;;;;11.63;4.53;;;-0.40;86.40;;;;;;4976940;28;20034;-91
2020/12/30 05:57:24;;;;;;;9.65;4.07;;;-0.40;86.30;;;;;;4974128;28;20062;-90
2020/12/30 05:59:55;;;;;;;9.13;4.20;;;-0.30;86.10;;;;;;4990733;28;20030;-91
2020/12/30 06:02:26;;;;;;;13.27;5.20;;;-0.30;86.10;;;;;;4974897;28;20019;-90
2020/12/30 06:04:53;;;;;;;11.35;4.85;;;-0.30;85.90;;;;;;4974317;28;20026;-90
2020/12/30 06:07:19;;;;;;;9.68;4.10;;;-0.30;85.60;;;;;;4973960;28;20090;-91
2020/12/30 06:09:51;;;;;;;10.60;4.38;;;-0.40;85.40;;;;;;4981791;28;20471;-92
2020/12/30 06:12:24;;;;;;;9.77;4.25;;;-0.40;85.40;;;;;;4974794;28;20042;-92
2020/12/30 06:14:50;;;;;;;10.90;4.20;;;-0.40;85.50;;;;;;4974282;28;20114;-84
2020/12/30 06:17:25;;;;;;;8.82;4.28;;;-0.40;85.40;;;;;;4972343;28;20023;-84
2020/12/30 06:19:52;;;;;;;13.25;4.43;;;-0.40;85.80;;;;;;4973005;28;20031;-83
2020/12/30 06:22:21;;;;;;;13.77;4.60;;;-0.40;86.10;;;;;;4974609;28;20423;-83
2020/12/30 06:24:52;;;;;;;12.70;4.22;;;-0.30;86.20;;;;;;4973892;28;20073;-88
2020/12/30 06:27:24;;;;;;;10.88;4.28;;;-0.20;86.30;;;;;;4973176;28;20035;-85
2020/12/30 06:29:54;;;;;;;9.07;4.25;;;-0.10;86.50;;;;;;4973208;28;20010;-85
2020/12/30 06:32:31;;;;;;;11.40;4.47;;;-0.10;86.20;;;;;;4973056;28;20035;-85
2020/12/30 06:34:58;;;;;;;11.27;4.60;;;-0.10;85.90;;;;;;4973063;28;20344;-82
2020/12/30 06:37:43;;;;;;;13.13;4.95;;;-0.10;85.80;;;;;;4972927;28;20019;-85
2020/12/30 06:40:31;;;;;;;11.18;4.72;;;-0.10;85.90;;;;;;4988911;28;20133;-84
2020/12/30 06:43:01;;;;;;;11.82;4.50;;;-0.10;85.80;;;;;;4991095;28;20119;-85
2020/12/30 06:45:42;;;;;;;10.85;4.53;;;-0.10;85.70;;;;;;4993324;28;20038;-85
2020/12/30 06:48:11;;;;;;;13.15;5.07;;;-0.10;85.90;;;;;;4988818;28;20027;-83
2020/12/30 06:50:37;;;;;;;10.55;4.65;;;-0.10;86.10;;;;;;4972160;28;20434;-83
2020/12/30 06:53:21;;;;;;;9.45;4.20;;;0.00;86.10;;;;;;4973975;28;20027;-83
2020/12/30 06:55:47;;;;;;;11.27;4.35;;;0.00;86.00;;;;;;4989048;28;20023;-83
2020/12/30 06:58:44;;;;;;;9.18;4.07;;;0.00;86.00;;;;;;4972230;28;20365;-84
2020/12/30 07:01:15;;;;;;;9.95;4.53;;;0.00;85.90;;;;;;4969597;28;20023;-83
2020/12/30 07:03:42;;;;;;;10.43;4.60;;;0.00;85.90;;;;;;4988342;28;20057;-86
2020/12/30 07:06:30;;;;;;;14.63;5.05;;;0.10;86.00;;;;;;4994119;28;20075;-85
2020/12/30 07:09:03;;;;;;;11.32;4.97;;;0.10;85.90;;;;;;4972139;28;20023;-84
2020/12/30 07:11:42;;;;;;;10.07;4.30;;;0.00;85.50;;;;;;4972194;28;20035;-85
2020/12/30 07:14:20;;;;;;;10.60;4.28;;;0.00;85.20;;;;;;4971887;28;20027;-85
2020/12/30 07:16:46;;;;;;;13.32;4.72;;;-0.10;85.20;;;;;;4972382;28;20029;-85
2020/12/30 07:19:15;;;;;;;14.27;4.88;;;-0.10;85.20;;;;;;4989071;28;20027;-87
2020/12/30 07:21:58;;;;;;;12.13;4.78;;;-0.10;85.20;;;;;;4970983;28;20445;-86
2020/12/30 07:24:33;;;;;;;11.25;4.70;;;-0.20;85.20;;;;;;4969835;28;20037;-86
2020/12/30 07:27:00;;;;;;;;;;;-0.20;85.30;;;;;;4989098;28;20019;-86
2020/12/30 07:29:26;;;;;;;10.77;4.70;;;-0.20;85.80;;;;;;4990467;28;20380;-86
2020/12/30 07:31:54;;;;;;;12.90;4.82;;;-0.10;86.00;;;;;;4978353;28;20038;-86
2020/12/30 07:34:22;;;;;;;11.68;5.13;;;-0.10;85.80;;;;;;4971804;28;20062;-86
2020/12/30 07:36:48;;;;;;;12.75;5.18;;;-0.10;85.50;;;;;;4972340;28;20118;-87
2020/12/30 07:39:15;;;;;;;9.98;4.40;;;-0.20;85.90;;;;;;4972183;28;20039;-86
2020/12/30 07:41:45;;;;;;;12.43;5.43;;;-0.20;85.30;;;;;;4956000;28;20043;-86
2020/12/30 07:44:12;;;;;;;17.83;7.93;;;-0.20;85.40;;;;;;4973450;28;20117;-87
2020/12/30 07:46:37;;;;;;;12.70;5.55;;;-0.20;85.40;;;;;;4977247;28;20578;-85
2020/12/30 07:49:07;;;;;;;12.55;5.10;;;-0.20;85.40;;;;;;4976058;28;20118;-85
2020/12/30 07:51:33;;;;;;;10.27;4.82;;;-0.20;85.40;;;;;;4975939;28;20061;-85
2020/12/30 07:53:59;;;;;;;13.38;5.32;;;-0.20;85.30;;;;;;4996424;28;20054;-85
2020/12/30 07:56:25;;;;;;;11.95;5.22;;;-0.20;85.30;;;;;;4977019;28;20065;-85
2020/12/30 07:58:51;;;;;;;9.38;4.05;;;-0.30;85.20;;;;;;4975378;28;20501;-86
2020/12/30 08:01:18;;;;;;;12.52;4.97;;;-0.30;85.30;;;;;;4975355;28;20125;-84
2020/12/30 08:03:43;;;;;;;14.18;5.15;;;-0.30;85.40;;;;;;4976667;28;20022;-83
2020/12/30 08:06:09;;;;;;;13.05;5.50;;;-0.30;85.60;;;;;;4976175;28;20558;-89
2020/12/30 08:08:41;;;;;;;17.98;6.55;;;-0.20;85.70;;;;;;4944021;28;20388;-85
2020/12/30 08:11:07;;;;;;;16.15;6.22;;;-0.20;85.80;;;;;;4998985;28;20019;-84
2020/12/30 08:13:32;;;;;;;16.63;6.32;;;-0.10;85.80;;;;;;4978005;28;20026;-84
2020/12/30 08:15:58;;;;;;;16.27;6.35;;;-0.10;85.90;;;;;;4976202;28;20029;-83
2020/12/30 08:18:24;;;;;;;13.93;6.07;;;-0.10;85.90;;;;;;4993310;28;20105;-83
2020/12/30 08:20:49;;;;;;;16.20;6.57;;;0.00;85.90;;;;;;4959174;28;20043;-84
2020/12/30 08:23:18;;;;;;;14.88;5.90;;;0.00;86.10;;;;;;4976797;28;20550;-84
2020/12/30 08:25:48;;;;;;;12.93;6.22;;;0.10;86.40;;;;;;4975145;28;20034;-82
2020/12/30 08:28:15;;;;;;;12.68;6.28;;;0.20;86.70;;;;;;4981240;28;20034;-85
2020/12/30 08:30:44;;;;;;;15.70;7.18;;;0.40;87.20;;;;;;4958733;28;20118;-84
2020/12/30 08:33:12;;;;;;;15.77;6.68;;;0.50;87.10;;;;;;4992656;28;20103;-86
2020/12/30 08:35:46;;;;;;;17.65;6.28;;;0.60;87.00;;;;;;4972359;28;20435;-87
2020/12/30 08:38:15;;;;;;;14.38;5.70;;;0.80;87.30;;;;;;4991619;28;20035;-89
2020/12/30 08:40:41;;;;;;;12.70;5.80;;;0.90;87.20;;;;;;4975489;28;20360;-89
2020/12/30 08:43:56;;;;;;;15.98;6.72;;;1.00;86.70;;;;;;4960577;28;20475;-89
2020/12/30 08:46:25;;;;;;;18.77;7.30;;;0.90;86.20;;;;;;4938686;29;20031;-87
2020/12/30 08:48:53;;;;;;;17.30;7.32;;;0.90;86.10;;;;;;4968124;28;20035;-89
2020/12/30 08:51:29;;;;;;;19.92;7.43;;;0.90;86.00;;;;;;4994915;28;20042;-87
2020/12/30 08:53:55;;;;;;;16.38;6.63;;;0.80;85.90;;;;;;4986761;28;20077;-87
2020/12/30 08:56:22;;;;;;;19.95;7.93;;;0.80;86.00;;;;;;4974372;28;20023;-87
2020/12/30 08:58:56;;;;;;;13.35;6.57;;;0.80;86.10;;;;;;4995431;28;20030;-85
2020/12/30 09:01:26;;;;;;;20.08;7.88;;;0.80;86.30;;;;;;4982228;28;20113;-87
2020/12/30 09:03:52;;;;;;;20.70;9.15;;;0.90;86.60;;;;;;4974325;28;20503;-84
2020/12/30 09:06:29;;;;;;;19.30;7.15;;;1.00;86.90;;;;;;4996461;28;20062;-83
2020/12/30 09:09:12;;;;;;;15.07;6.97;;;1.00;86.70;;;;;;4975512;28;20498;-84
2020/12/30 09:11:44;;;;;;;13.77;6.53;;;1.10;86.90;;;;;;4990461;28;20037;-84
2020/12/30 09:14:14;;;;;;;16.02;7.18;;;1.20;87.40;;;;;;4974981;28;20033;-85
2020/12/30 09:16:52;;;;;;;18.52;7.72;;;1.40;88.50;;;;;;4997315;28;20023;-83
2020/12/30 09:19:21;;;;;;;19.52;9.23;;;1.60;88.30;;;;;;4989446;28;20113;-84
2020/12/30 09:21:47;;;;;;;19.33;8.40;;;1.80;89.10;;;;;;4973765;28;20058;-84
2020/12/30 09:24:14;;;;;;;17.00;7.45;;;2.00;88.30;;;;;;4978173;28;20441;-85
2020/12/30 09:26:40;;;;;;;17.85;7.80;;;2.20;88.40;;;;;;4972711;28;20023;-83
2020/12/30 09:29:17;;;;;;;16.40;8.02;;;2.30;88.50;;;;;;4974217;28;20074;-82
2020/12/30 09:31:55;;;;;;;17.35;8.40;;;2.50;88.70;;;;;;4958054;28;20022;-85
2020/12/30 09:34:21;;;;;;;18.30;9.30;;;2.80;89.30;;;;;;4974861;28;20077;-85
2020/12/30 09:36:58;;;;;;;18.52;8.05;;;3.00;89.40;;;;;;4996381;28;20387;-85
2020/12/30 09:39:27;;;;;;;18.60;7.70;;;3.20;89.10;;;;;;4973865;28;20383;-85
2020/12/30 09:42:04;;;;;;;13.82;6.10;;;3.40;89.00;;;;;;4993617;28;20031;-85
2020/12/30 09:44:30;;;;;;;13.55;6.85;;;3.50;89.00;;;;;;4970500;28;20045;-85
2020/12/30 09:46:56;;;;;;;15.95;7.40;;;3.70;89.00;;;;;;4991558;28;20523;-85
2020/12/30 09:49:23;;;;;;;14.30;7.20;;;3.80;88.80;;;;;;4996458;28;20118;-86
2020/12/30 09:51:55;;;;;;;15.23;6.85;;;4.00;88.70;;;;;;4974163;28;20114;-85
2020/12/30 09:54:22;;;;;;;12.82;6.43;;;4.10;88.50;;;;;;4972649;28;20038;-84
2020/12/30 09:56:51;;;;;;;12.85;5.90;;;4.20;88.50;;;;;;4997440;28;20023;-85
2020/12/30 09:59:20;;;;;;;15.02;6.35;;;4.30;88.60;;;;;;4957086;28;20146;-85
2020/12/30 10:01:47;;;;;;;12.52;5.82;;;4.40;88.80;;;;;;4994643;28;20019;-85
2020/12/30 10:04:13;;;;;;;11.70;5.53;;;4.60;88.80;;;;;;4991205;28;20027;-86
2020/12/30 10:06:39;;;;;;;12.23;5.47;;;4.70;88.70;;;;;;4957198;28;20079;-85
2020/12/30 10:09:04;;;;;;;11.00;5.05;;;4.80;88.80;;;;;;4997271;28;20058;-87
2020/12/30 10:11:30;;;;;;;13.77;5.40;;;5.00;89.20;;;;;;4957187;28;20074;-85
2020/12/30 10:13:55;;;;;;;12.70;5.35;;;5.20;89.10;;;;;;4970227;28;20031;-86
2020/12/30 10:16:21;;;;;;;11.07;5.00;;;5.30;89.10;;;;;;4989288;28;20037;-85
2020/12/30 10:18:46;;;;;;;12.32;5.72;;;5.40;89.00;;;;;;4957141;28;20113;-85
2020/12/30 10:21:12;;;;;;;12.77;4.93;;;5.60;89.00;;;;;;4974759;28;20089;-84
2020/12/30 10:23:38;;;;;;;12.18;5.20;;;5.70;89.60;;;;;;4970001;28;20051;-84
2020/12/30 10:26:03;;;;;;;10.35;4.85;;;5.80;88.90;;;;;;4975089;28;20058;-84
2020/12/30 10:28:29;;;;;;;11.50;5.25;;;5.90;88.50;;;;;;4992819;28;20118;-87
2020/12/30 10:30:54;;;;;;;11.73;5.28;;;5.90;88.20;;;;;;4969726;28;20046;-86
2020/12/30 10:33:20;;;;;;;11.65;5.00;;;6.00;88.70;;;;;;4972000;28;20122;-86
2020/12/30 10:35:46;;;;;;;9.60;4.20;;;6.10;88.50;;;;;;4979717;28;20586;-86
2020/12/30 10:38:11;;;;;;;10.45;4.60;;;6.10;88.40;;;;;;4956521;28;20037;-87
2020/12/30 10:40:37;;;;;;;10.50;4.95;;;6.30;88.50;;;;;;4972415;28;20027;-85
2020/12/30 10:43:03;;;;;;;14.30;4.50;;;6.30;88.40;;;;;;4991501;28;20085;-85
2020/12/30 10:45:30;;;;;;;10.32;4.60;;;6.30;88.30;;;;;;4981883;28;20035;-84
2020/12/30 10:47:56;;;;;;;12.75;5.28;;;6.40;88.50;;;;;;4973413;28;20065;-85
2020/12/30 10:50:22;;;;;;;12.15;4.97;;;6.50;88.30;;;;;;4973144;28;20035;-85
2020/12/30 10:52:48;;;;;;;10.10;4.95;;;6.50;88.40;;;;;;4990637;28;20114;-85
2020/12/30 10:55:14;;;;;;;16.42;7.38;;;6.60;88.20;;;;;;4973242;28;20113;-83
2020/12/30 10:57:39;;;;;;;22.25;7.75;;;6.50;87.40;;;;;;4996583;28;20380;-88
2020/12/30 11:00:05;;;;;;;15.85;7.55;;;6.50;87.80;;;;;;4957308;28;20039;-88
2020/12/30 11:02:30;;;;;;;13.63;6.30;;;6.50;87.90;;;;;;4972457;28;20547;-86
2020/12/30 11:04:56;;;;;;;14.68;6.57;;;6.60;88.20;;;;;;4974861;28;20035;-85
2020/12/30 11:07:21;;;;;;;14.95;6.97;;;6.70;88.10;;;;;;4969578;28;20391;-85
2020/12/30 11:09:49;;;;;;;13.07;6.28;;;6.80;88.60;;;;;;4989405;28;20030;-87
2020/12/30 11:12:15;;;;;;;14.57;6.68;;;6.90;88.60;;;;;;4993327;28;20114;-86
2020/12/30 11:14:41;;;;;;;11.73;6.18;;;7.00;88.50;;;;;;4974136;28;20165;-88
2020/12/30 11:17:06;;;;;;;12.82;5.82;;;7.10;88.90;;;;;;4973659;28;20032;-85
2020/12/30 11:19:32;;;;;;;10.20;4.90;;;7.20;88.90;;;;;;4988741;28;20468;-85
2020/12/30 11:21:57;;;;;;;10.65;4.90;;;7.40;89.10;;;;;;4959789;28;20058;-84
2020/12/30 11:24:23;;;;;;;10.38;4.30;;;7.50;89.00;;;;;;4982491;28;20062;-83
2020/12/30 11:26:49;;;;;;;9.00;4.28;;;7.60;89.00;;;;;;4960038;28;20026;-84
2020/12/30 11:29:16;;;;;;;10.43;4.38;;;7.80;89.10;;;;;;4976186;28;20043;-84
2020/12/30 11:31:42;;;;;;;12.65;5.47;;;8.00;89.20;;;;;;4959500;28;20042;-84
2020/12/30 11:34:12;;;;;;;11.95;5.00;;;8.10;89.70;;;;;;4977471;28;20050;-84
2020/12/30 11:36:37;;;;;;;9.70;4.60;;;8.60;90.90;;;;;;4971856;28;20023;-86
2020/12/30 11:39:03;;;;;;;12.52;5.75;;;9.20;91.40;;;;;;4995301;28;20049;-85
2020/12/30 11:41:30;;;;;;;11.60;4.70;;;9.70;90.50;;;;;;4982073;28;20398;-85
2020/12/30 11:43:56;;;;;;;11.63;5.55;;;10.10;90.50;;;;;;4977631;28;20111;-87
2020/12/30 11:46:25;;;;;;;9.25;4.40;;;10.30;89.00;;;;;;4997070;28;20117;-85
2020/12/30 11:48:51;;;;;;;9.75;4.30;;;10.20;87.50;;;;;;4993427;28;20065;-85
2020/12/30 11:51:17;;;;;;;10.45;4.63;;;9.80;85.90;;;;;;4976869;28;20039;-85
2020/12/30 11:53:42;;;;;;;11.85;6.50;;;9.80;88.20;;;;;;4994300;28;20118;-89
2020/12/30 11:56:08;;;;;;;11.70;5.93;;;9.90;88.20;;;;;;4959674;28;20037;-88
2020/12/30 11:58:34;;;;;;;15.05;6.38;;;10.00;88.60;;;;;;4999224;28;20034;-88
2020/12/30 12:00:59;;;;;;;12.05;6.43;;;10.00;88.50;;;;;;4959391;28;20537;-85
2020/12/30 12:03:25;;;;;;;10.23;4.15;;;10.20;89.50;;;;;;4998181;28;20035;-85
2020/12/30 12:05:50;;;;;;;9.52;4.10;;;10.50;90.40;;;;;;4975793;28;20034;-86
2020/12/30 12:08:16;;;;;;;11.55;5.90;;;10.90;90.20;;;;;;4979761;28;20038;-85
2020/12/30 12:10:41;;;;;;;8.05;2.80;;;11.00;90.10;;;;;;4977552;28;20530;-84
2020/12/30 12:13:07;;;;;;;5.88;2.58;;;11.20;88.60;;;;;;4959021;28;20019;-85
2020/12/30 12:15:32;;;;;;;4.47;2.00;;;11.10;87.30;;;;;;4959580;28;20031;-85
2020/12/30 12:17:58;;;;;;;4.95;2.20;;;10.80;86.70;;;;;;4958966;28;20031;-85
2020/12/30 12:20:24;;;;;;;4.70;2.25;;;10.80;89.00;;;;;;4976699;28;20394;-85
2020/12/30 12:22:49;;;;;;;5.03;2.13;;;10.80;87.10;;;;;;4992506;28;20051;-84
2020/12/30 12:25:15;;;;;;;5.72;2.33;;;10.70;86.30;;;;;;4992618;28;20547;-85
2020/12/30 12:27:40;;;;;;;4.18;1.73;;;10.60;86.80;;;;;;4993977;28;20106;-85
2020/12/30 12:30:06;;;;;;;6.15;2.00;;;10.50;86.20;;;;;;4976257;28;20483;-89
2020/12/30 12:32:32;;;;;;;3.83;1.75;;;10.10;85.00;;;;;;4993952;28;20113;-86
2020/12/30 12:34:58;;;;;;;4.95;2.28;;;9.90;85.60;;;;;;4982435;28;20031;-83
2020/12/30 12:37:25;;;;;;;5.63;2.38;;;9.60;85.00;;;;;;4978565;28;20031;-83
2020/12/30 12:39:52;;;;;;;8.10;3.20;;;9.40;85.80;;;;;;4997470;28;20042;-83
2020/12/30 12:42:19;;;;;;;7.88;2.90;;;9.40;85.80;;;;;;4992626;28;20023;-84
2020/12/30 12:44:45;;;;;;;9.07;3.08;;;9.30;86.70;;;;;;4974327;28;20039;-85
2020/12/30 12:47:11;;;;;;;8.57;3.25;;;9.10;86.60;;;;;;4958806;28;20085;-84
2020/12/30 12:49:37;;;;;;;10.35;3.35;;;9.20;86.70;;;;;;4992749;28;20023;-85